Time;durP1;ratioP1;P1;durP2;ratioP2;P2;SDS_P1;SDS_P2;PMS_P1;PMS_P2;Temp;Humidity;BMP_temperature;BMP_pressure;BME280_temperature;BME280_humidity;BME280_pressure;Samples;Min_cycle;Max_cycle;Signal;HPM_P1;HPM_P2
2023/01/23 00:01:13;;;;;;;68.50;25.63;;;;;;;1.76;100.00;102078.41;5074475;28;20458;-74
2023/01/23 00:03:39;;;;;;;66.43;26.27;;;;;;;1.75;100.00;102079.59;5074197;28;20025;-74
2023/01/23 00:06:15;;;;;;;60.20;23.60;;;;;;;1.71;100.00;102078.75;5071915;28;20445;-76
2023/01/23 00:08:41;;;;;;;64.25;24.77;;;;;;;1.75;100.00;102090.06;5071902;28;20116;-73
2023/01/23 00:11:12;;;;;;;70.68;26.25;;;;;;;1.80;100.00;102086.88;5071936;28;20028;-75
2023/01/23 00:13:38;;;;;;;65.22;25.92;;;;;;;1.81;100.00;102083.69;5072254;28;20020;-73
2023/01/23 00:16:09;;;;;;;70.00;25.30;;;;;;;1.85;100.00;102081.69;5072486;28;20043;-74
2023/01/23 00:18:34;;;;;;;68.72;26.05;;;;;;;1.89;100.00;102081.75;5071927;28;20028;-73
2023/01/23 00:21:04;;;;;;;70.10;27.52;;;;;;;1.89;100.00;102085.38;5073760;28;20020;-74
2023/01/23 00:23:30;;;;;;;61.35;25.48;;;;;;;1.82;100.00;102076.03;5074008;28;20534;-73
2023/01/23 00:26:04;;;;;;;71.22;26.80;;;;;;;1.85;100.00;102073.25;5074096;28;20103;-75
2023/01/23 00:28:29;;;;;;;69.80;26.38;;;;;;;1.89;100.00;102071.28;5056422;28;20047;-73
2023/01/23 00:31:04;;;;;;;64.93;25.70;;;;;;;1.89;100.00;102074.09;5073769;28;20458;-73
2023/01/23 00:33:29;;;;;;;68.07;25.45;;;;;;;1.83;100.00;102077.66;5052246;28;20048;-73
2023/01/23 00:35:55;;;;;;;73.25;24.92;;;;;;;1.85;100.00;102083.69;5052457;28;20389;-73
2023/01/23 00:38:20;;;;;;;62.20;24.25;;;;;;;1.86;100.00;102091.78;5053445;28;20024;-72
2023/01/23 00:40:46;;;;;;;68.55;26.15;;;;;;;1.80;100.00;102087.69;5052489;28;20020;-74
2023/01/23 00:43:11;;;;;;;73.97;26.48;;;;;;;1.82;100.00;102107.03;5053884;28;20016;-74
2023/01/23 00:45:37;;;;;;;80.07;30.67;;;;;;;1.76;100.00;102100.13;5053794;28;20028;-74
2023/01/23 00:48:03;;;;;;;77.53;27.95;;;;;;;1.63;100.00;102093.97;5053911;28;20024;-73
2023/01/23 00:50:28;;;;;;;67.53;27.23;;;;;;;1.65;100.00;102099.22;5053624;28;20021;-73
2023/01/23 00:52:54;;;;;;;76.13;27.48;;;;;;;1.60;100.00;102103.19;5053429;28;20021;-72
2023/01/23 00:55:19;;;;;;;86.65;29.38;;;;;;;1.65;100.00;102110.50;5053575;28;20534;-74
2023/01/23 00:57:44;;;;;;;76.15;26.30;;;;;;;1.71;100.00;102117.38;5053539;28;20462;-73
2023/01/23 01:00:10;;;;;;;79.28;27.60;;;;;;;1.64;100.00;102120.16;5053358;28;20060;-74
2023/01/23 01:02:35;;;;;;;85.85;28.60;;;;;;;1.65;100.00;102130.22;5053611;28;20028;-74
2023/01/23 01:05:01;;;;;;;75.90;28.45;;;;;;;1.58;100.00;102130.13;5053100;28;20033;-73
2023/01/23 01:07:26;;;;;;;72.00;28.55;;;;;;;1.54;100.00;102126.47;5053087;28;20025;-73
2023/01/23 01:09:52;;;;;;;84.43;26.65;;;;;;;1.44;100.00;102116.72;5053598;28;20028;-73
2023/01/23 01:12:18;;;;;;;73.95;28.35;;;;;;;1.41;100.00;102109.84;5053004;28;20055;-73
2023/01/23 01:14:43;;;;;;;82.35;26.48;;;;;;;1.37;100.00;102114.63;5053338;28;20020;-74
2023/01/23 01:17:09;;;;;;;85.90;26.42;;;;;;;1.34;100.00;102121.03;5053046;28;20331;-73
2023/01/23 01:19:35;;;;;;;74.20;26.50;;;;;;;1.34;100.00;102128.66;5053275;28;20079;-73
2023/01/23 01:22:00;;;;;;;87.20;26.77;;;;;;;1.33;100.00;102115.78;5052979;28;20048;-74
2023/01/23 01:24:26;;;;;;;81.68;27.58;;;;;;;1.42;100.00;102128.34;5053261;28;20032;-74
2023/01/23 01:26:51;;;;;;;78.30;26.05;;;;;;;1.35;100.00;102121.84;5053038;28;20480;-74
2023/01/23 01:29:17;;;;;;;103.60;29.52;;;;;;;1.44;100.00;102131.63;5053193;28;20103;-73
2023/01/23 01:31:42;;;;;;;77.90;27.17;;;;;;;1.41;100.00;102112.66;5053406;28;20064;-74
2023/01/23 01:34:07;;;;;;;83.43;26.95;;;;;;;1.54;100.00;102118.03;5067229;28;20052;-73
2023/01/23 01:36:33;;;;;;;76.72;27.02;;;;;;;1.44;100.00;102123.16;5073222;28;20103;-74
2023/01/23 01:38:58;;;;;;;83.28;27.02;;;;;;;1.42;100.00;102121.91;5055037;28;20449;-75
2023/01/23 01:41:24;;;;;;;85.22;27.38;;;;;;;1.39;100.00;102125.50;5073592;28;20055;-72
2023/01/23 01:43:52;;;;;;;81.28;25.48;;;;;;;1.37;100.00;102125.06;5072959;28;20021;-74
2023/01/23 01:46:22;;;;;;;83.18;24.05;;;;;;;1.35;100.00;102135.94;5073192;28;20044;-73
2023/01/23 01:49:10;;;;;;;79.95;29.58;;;;;;;1.43;100.00;102151.72;5054974;28;20059;-74
2023/01/23 01:51:57;;;;;;;97.22;24.85;;;;;;;1.50;100.00;102160.25;5055248;28;20024;-73
2023/01/23 01:54:40;;;;;;;98.25;28.30;;;;;;;1.57;100.00;102165.13;5071073;28;20030;-73
2023/01/23 01:57:23;;;;;;;92.03;28.60;;;;;;;1.54;100.00;102171.53;5052640;28;20033;-75
2023/01/23 02:00:28;;;;;;;88.53;27.30;;;;;;;1.57;100.00;102170.75;5071028;28;20381;-74
2023/01/23 02:03:00;;;;;;;93.47;28.38;;;;;;;1.48;100.00;102165.44;4969918;28;20467;-73
2023/01/23 02:05:38;;;;;;;87.82;28.27;;;;;;;1.56;100.00;102169.94;4970005;28;20066;-75
2023/01/23 02:08:09;;;;;;;83.25;27.25;;;;;;;1.57;100.00;102171.59;5029527;28;20040;-73
2023/01/23 02:10:36;;;;;;;84.32;28.05;;;;;;;1.54;100.00;102171.53;5052915;28;20579;-74
2023/01/23 02:13:37;;;;;;;95.35;29.02;;;;;;;1.51;100.00;102175.13;5053157;28;20059;-73
2023/01/23 02:16:04;;;;;;;94.57;28.50;;;;;;;1.54;100.00;102180.00;5071018;28;20417;-72
2023/01/23 02:18:30;;;;;;;82.35;27.80;;;;;;;1.52;100.00;102188.81;5052874;28;20110;-73
2023/01/23 02:20:57;;;;;;;92.07;29.00;;;;;;;1.57;100.00;102184.84;5071589;28;20030;-72
2023/01/23 02:23:34;;;;;;;96.75;28.73;;;;;;;1.60;100.00;102187.69;5053652;28;20039;-72
2023/01/23 02:26:02;;;;;;;93.78;28.30;;;;;;;1.69;100.00;102195.88;5055352;28;20028;-73
2023/01/23 02:28:43;;;;;;;90.60;30.33;;;;;;;1.69;100.00;102193.88;5055000;28;20045;-73
2023/01/23 02:31:09;;;;;;;94.70;29.40;;;;;;;1.68;100.00;102197.88;5075844;28;20045;-73
2023/01/23 02:33:34;;;;;;;103.40;31.77;;;;;;;1.72;100.00;102200.72;5054730;28;20486;-73
2023/01/23 02:36:01;;;;;;;101.03;30.73;;;;;;;1.73;100.00;102211.63;5056367;28;20040;-73
2023/01/23 02:38:32;;;;;;;101.97;31.20;;;;;;;1.68;100.00;102199.88;5056379;28;20036;-72
2023/01/23 02:41:00;;;;;;;105.78;29.02;;;;;;;1.67;100.00;102201.06;5056336;28;20100;-73
2023/01/23 02:43:33;;;;;;;90.03;28.20;;;;;;;1.63;100.00;102206.66;5055942;28;20214;-73
2023/01/23 02:46:02;;;;;;;98.97;30.00;;;;;;;1.58;100.00;102201.38;5055092;28;20033;-73
2023/01/23 02:48:27;;;;;;;103.90;28.23;;;;;;;1.58;100.00;102200.56;5055977;28;20029;-73
2023/01/23 02:50:53;;;;;;;93.50;30.45;;;;;;;1.55;100.00;102193.72;5056048;28;20036;-73
2023/01/23 02:53:18;;;;;;;106.15;30.23;;;;;;;1.60;100.00;102196.16;5056285;28;20027;-73
2023/01/23 02:55:43;;;;;;;103.57;31.42;;;;;;;1.60;100.00;102203.81;5055963;28;20382;-73
2023/01/23 03:01:07;;;;;;;103.32;29.80;;;;;;;1.55;100.00;102209.81;5022071;28;20031;-73
2023/01/23 03:03:33;;;;;;;101.28;28.65;;;;;;;1.47;100.00;102215.34;5054701;28;20112;-72
2023/01/23 03:06:02;;;;;;;101.47;28.73;;;;;;;1.53;100.00;102220.63;5055440;28;20024;-74
2023/01/23 03:08:32;;;;;;;109.53;29.80;;;;;;;1.49;100.00;102214.97;5055685;28;20017;-73
2023/01/23 03:11:02;;;;;;;100.88;30.52;;;;;;;1.48;100.00;102216.16;5055444;28;20398;-73
2023/01/23 03:13:28;;;;;;;93.28;27.63;;;;;;;1.55;100.00;102216.25;5054332;28;20029;-74
2023/01/23 03:15:56;;;;;;;93.45;29.42;;;;;;;1.61;100.00;102214.69;5054090;28;20506;-73
2023/01/23 03:18:22;;;;;;;98.03;28.20;;;;;;;1.64;100.00;102213.13;5055318;28;20386;-72
2023/01/23 03:20:47;;;;;;;101.78;29.08;;;;;;;1.69;100.00;102215.59;5055145;28;20032;-72
2023/01/23 03:23:13;;;;;;;95.53;26.50;;;;;;;1.65;100.00;102223.19;5055454;28;20029;-72
2023/01/23 03:25:42;;;;;;;112.35;27.10;;;;;;;1.64;100.00;102228.03;5055399;28;20033;-73
2023/01/23 03:30:12;;;;;;;97.38;30.85;;;;;;;1.65;100.00;102228.84;5055055;28;20025;-72
2023/01/23 03:30:53;;;;;;;100.63;28.05;;;;;;;1.66;100.00;102228.44;5054939;28;20044;-74
2023/01/23 03:33:18;;;;;;;105.50;29.15;;;;;;;1.63;100.00;102228.41;5062061;28;20044;-73
2023/01/23 03:35:44;;;;;;;102.05;28.48;;;;;;;1.67;100.00;102234.88;5075172;28;20032;-73
2023/01/23 03:38:09;;;;;;;90.25;27.95;;;;;;;1.69;100.00;102233.31;5075049;28;20103;-73
2023/01/23 03:43:18;;;;;;;97.25;29.33;;;;;;;1.72;100.00;102228.91;5074634;28;20044;-73
2023/01/23 03:45:44;;;;;;;87.75;27.48;;;;;;;1.70;100.00;102234.13;5074718;28;20024;-74
2023/01/23 03:48:09;;;;;;;106.90;29.58;;;;;;;1.68;100.00;102233.69;5074971;28;20064;-73
2023/01/23 03:50:35;;;;;;;97.68;30.95;;;;;;;1.69;100.00;102238.94;5074724;28;20100;-72
2023/01/23 03:53:00;;;;;;;92.60;27.02;;;;;;;1.76;100.00;102232.56;5056782;28;20367;-74
2023/01/23 03:55:25;;;;;;;92.07;28.33;;;;;;;1.78;100.00;102235.81;5074841;28;20037;-73
2023/01/23 03:57:51;;;;;;;98.68;30.58;;;;;;;1.82;100.00;102236.66;5074697;28;20040;-72
2023/01/23 04:00:17;;;;;;;96.00;28.23;;;;;;;1.78;100.00;102230.19;5074359;28;20334;-72
2023/01/23 04:02:42;;;;;;;92.40;26.83;;;;;;;1.82;100.00;102229.03;5074337;28;20485;-72
2023/01/23 04:05:08;;;;;;;88.90;28.75;;;;;;;1.87;100.00;102239.16;5074553;28;20063;-72
2023/01/23 04:07:33;;;;;;;90.22;29.10;;;;;;;1.87;100.00;102228.69;5074877;28;20404;-73
2023/01/23 04:09:58;;;;;;;89.97;30.25;;;;;;;1.83;100.00;102235.47;5074056;28;20111;-72
2023/01/23 04:12:24;;;;;;;95.85;29.75;;;;;;;1.82;100.00;102225.41;5074153;28;20043;-72
2023/01/23 04:14:49;;;;;;;98.10;30.60;;;;;;;1.85;100.00;102227.44;5074164;28;20024;-73
2023/01/23 04:17:15;;;;;;;99.68;29.85;;;;;;;1.85;100.00;102230.25;5056573;28;20450;-74
2023/01/23 04:19:40;;;;;;;96.68;26.95;;;;;;;1.81;100.00;102223.78;5074436;28;20032;-73
2023/01/23 04:22:06;;;;;;;100.88;28.20;;;;;;;1.78;100.00;102230.19;5074132;28;20530;-73
2023/01/23 04:24:31;;;;;;;92.75;28.35;;;;;;;1.78;100.00;102231.00;5074224;28;20461;-74
2023/01/23 04:26:56;;;;;;;108.13;30.27;;;;;;;1.77;100.00;102226.56;5074231;28;20033;-74
2023/01/23 04:29:22;;;;;;;92.00;28.58;;;;;;;1.71;100.00;102232.91;5074076;28;20107;-74
2023/01/23 04:31:47;;;;;;;91.22;28.27;;;;;;;1.73;100.00;102225.72;5073857;28;20062;-73
2023/01/23 04:34:12;;;;;;;92.65;26.95;;;;;;;1.65;100.00;102218.34;5073649;28;20044;-73
2023/01/23 04:36:38;;;;;;;91.30;27.77;;;;;;;1.71;100.00;102222.44;5074112;28;20025;-74
2023/01/23 04:39:03;;;;;;;83.93;27.45;;;;;;;1.74;100.00;102227.34;5073994;28;20423;-73
2023/01/23 04:41:30;;;;;;;90.57;27.75;;;;;;;1.78;100.00;102221.72;5073950;28;20089;-74
2023/01/23 04:43:56;;;;;;;95.15;29.25;;;;;;;1.77;100.00;102223.72;5073677;28;20093;-73
2023/01/23 04:46:21;;;;;;;88.65;30.42;;;;;;;1.78;100.00;102224.56;5055791;28;20446;-73
2023/01/23 04:48:46;;;;;;;97.00;27.17;;;;;;;1.76;100.00;102233.38;5073615;28;20020;-74
2023/01/23 04:51:12;;;;;;;82.88;27.38;;;;;;;1.76;100.00;102233.38;5073800;28;20032;-73
2023/01/23 04:53:38;;;;;;;88.75;27.52;;;;;;;1.80;100.00;102236.22;5073320;28;20024;-73
2023/01/23 04:56:03;;;;;;;93.72;27.88;;;;;;;1.85;100.00;102241.53;5073840;28;20454;-73
2023/01/23 04:58:29;;;;;;;76.57;26.27;;;;;;;1.86;100.00;102248.78;5073970;28;20107;-73
2023/01/23 05:01:01;;;;;;;88.78;29.85;;;;;;;1.84;100.00;102246.38;5073628;28;20370;-72
2023/01/23 05:03:26;;;;;;;;;;;;;;;1.85;100.00;102258.44;5073969;28;20035;-73
2023/01/23 05:05:51;;;;;;;78.80;24.80;;;;;;;1.86;100.00;102260.88;5073799;28;20265;-72
2023/01/23 05:08:17;;;;;;;85.88;27.30;;;;;;;1.85;100.00;102264.88;5073562;28;20034;-73
2023/01/23 05:10:43;;;;;;;81.07;27.05;;;;;;;1.90;100.00;102266.53;5073612;28;20028;-73
2023/01/23 05:13:09;;;;;;;92.95;27.25;;;;;;;1.90;100.00;102275.81;5073143;28;20462;-73
2023/01/23 05:15:35;;;;;;;86.05;27.55;;;;;;;1.88;100.00;102269.78;5055111;28;20037;-73
2023/01/23 05:18:00;;;;;;;82.40;27.10;;;;;;;1.84;100.00;102282.19;5073751;28;20098;-73
2023/01/23 05:20:27;;;;;;;78.57;27.83;;;;;;;1.78;100.00;102272.47;5073823;28;20029;-73
2023/01/23 05:22:52;;;;;;;86.70;27.77;;;;;;;1.74;100.00;102280.88;5073398;28;20420;-72
2023/01/23 05:25:24;;;;;;;82.43;27.23;;;;;;;1.71;100.00;102286.44;5073563;28;20038;-73
2023/01/23 05:27:49;;;;;;;89.95;27.42;;;;;;;1.72;100.00;102293.72;5073281;28;20115;-73
2023/01/23 05:30:20;;;;;;;82.07;25.38;;;;;;;1.72;100.00;102297.34;5073591;28;20124;-74
2023/01/23 05:32:46;;;;;;;81.63;26.90;;;;;;;1.68;100.00;102296.50;5055139;28;20477;-73
2023/01/23 05:35:13;;;;;;;76.38;25.63;;;;;;;1.67;100.00;102305.31;5071922;28;20048;-74
2023/01/23 05:37:41;;;;;;;81.93;28.27;;;;;;;1.63;100.00;102293.19;5055582;28;20343;-73
2023/01/23 05:40:10;;;;;;;84.25;24.63;;;;;;;1.64;100.00;102292.81;5055619;28;20489;-73
2023/01/23 05:42:36;;;;;;;85.97;27.45;;;;;;;1.68;100.00;102295.69;5038415;28;20036;-75
2023/01/23 05:45:05;;;;;;;73.90;24.85;;;;;;;1.77;100.00;102308.28;5055566;28;20028;-75
2023/01/23 05:47:31;;;;;;;81.20;23.48;;;;;;;1.71;100.00;102311.81;5037774;28;20017;-74
2023/01/23 05:49:57;;;;;;;86.95;25.73;;;;;;;1.69;100.00;102312.22;5072959;28;20374;-73
2023/01/23 05:52:38;;;;;;;84.07;28.08;;;;;;;1.65;100.00;102316.97;5073095;28;20020;-74
2023/01/23 05:55:04;;;;;;;98.35;26.98;;;;;;;1.67;100.00;102317.41;5072908;28;20584;-74
2023/01/23 05:57:29;;;;;;;71.00;27.17;;;;;;;1.68;100.00;102313.41;5022189;28;20032;-75
2023/01/23 05:59:56;;;;;;;81.10;25.33;;;;;;;1.73;100.00;102310.25;5073204;28;20032;-76
2023/01/23 06:02:22;;;;;;;82.55;27.60;;;;;;;1.80;100.00;102327.22;5037086;28;20128;-81
2023/01/23 06:04:47;;;;;;;81.00;26.90;;;;;;;1.80;100.00;102323.59;5084314;28;20036;-74
2023/01/23 06:07:19;;;;;;;82.45;27.10;;;;;;;1.79;100.00;102331.25;5096357;28;20040;-75
2023/01/23 06:09:45;;;;;;;;;;;;;;;1.74;100.00;102334.41;5045944;28;20119;-74
2023/01/23 06:12:12;;;;;;;80.97;27.48;;;;;;;1.70;100.00;102327.91;5077287;28;19911;-75
2023/01/23 06:14:39;;;;;;;85.32;27.98;;;;;;;1.73;100.00;102321.50;5079614;28;20437;-85
2023/01/23 06:17:05;;;;;;;74.45;25.42;;;;;;;1.73;100.00;102331.97;5079190;28;20036;-85
2023/01/23 06:19:31;;;;;;;71.50;25.10;;;;;;;1.70;100.00;102347.63;5096827;28;20456;-83
2023/01/23 06:21:59;;;;;;;80.13;26.58;;;;;;;1.65;100.00;102350.78;5078018;28;20065;-84
2023/01/23 06:24:25;;;;;;;79.13;28.88;;;;;;;1.77;100.00;102352.56;5096906;28;20096;-89
2023/01/23 06:26:57;;;;;;;74.50;28.63;;;;;;;1.77;100.00;102359.00;5079092;28;20028;-78
2023/01/23 06:29:22;;;;;;;80.03;25.15;;;;;;;1.82;100.00;102360.66;5095455;28;20028;-78
2023/01/23 06:31:50;;;;;;;80.60;26.73;;;;;;;1.81;100.00;102357.03;5077735;28;20031;-78
2023/01/23 06:34:16;;;;;;;74.63;24.50;;;;;;;1.74;100.00;102361.78;5096228;28;20056;-82
2023/01/23 06:36:46;;;;;;;71.60;24.95;;;;;;;1.70;100.00;102372.19;5096334;28;20052;-76
2023/01/23 06:39:14;;;;;;;68.07;25.63;;;;;;;1.71;100.00;102376.63;5096640;28;20028;-76
2023/01/23 06:41:39;;;;;;;76.03;27.65;;;;;;;1.73;100.00;102391.97;5096387;28;20027;-76
2023/01/23 06:44:06;;;;;;;70.07;26.20;;;;;;;1.79;100.00;102393.28;5076723;28;20457;-76
2023/01/23 06:46:32;;;;;;;67.38;26.08;;;;;;;1.83;100.00;102390.50;5076645;28;20049;-77
2023/01/23 06:48:57;;;;;;;68.63;25.48;;;;;;;1.83;100.00;102382.03;5077638;28;20097;-76
2023/01/23 06:51:23;;;;;;;64.60;25.98;;;;;;;1.86;100.00;102390.53;5078302;28;20024;-76
2023/01/23 06:53:48;;;;;;;66.70;24.33;;;;;;;1.88;100.00;102390.97;5096180;28;20044;-76
2023/01/23 06:56:13;;;;;;;61.08;26.08;;;;;;;1.93;100.00;102398.28;5095557;28;20534;-76
2023/01/23 06:58:43;;;;;;;68.35;23.77;;;;;;;1.89;100.00;102409.50;5093763;28;20469;-76
2023/01/23 07:01:14;;;;;;;64.00;24.77;;;;;;;1.91;100.00;102403.47;5093686;28;20024;-76
2023/01/23 07:03:40;;;;;;;68.63;23.30;;;;;;;1.91;100.00;102407.09;5075777;28;20065;-77
2023/01/23 07:06:06;;;;;;;68.25;24.20;;;;;;;1.91;100.00;102404.28;5093598;28;20225;-76
2023/01/23 07:08:34;;;;;;;65.85;25.58;;;;;;;2.00;100.00;102401.19;5093555;28;20020;-76
2023/01/23 07:11:00;;;;;;;56.13;23.10;;;;;;;2.07;100.00;102403.28;5093556;28;20169;-75
2023/01/23 07:13:26;;;;;;;68.47;26.45;;;;;;;2.01;100.00;102410.44;5060856;28;20031;-76
2023/01/23 07:15:51;;;;;;;68.07;26.67;;;;;;;1.94;100.00;102402.72;5077858;28;20024;-76
2023/01/23 07:18:17;;;;;;;67.53;26.20;;;;;;;1.96;100.00;102408.78;5095553;28;20034;-76
2023/01/23 07:20:43;;;;;;;72.32;27.15;;;;;;;1.97;100.00;102412.41;5095366;28;20022;-75
2023/01/23 07:23:09;;;;;;;72.22;25.88;;;;;;;2.03;100.00;102416.53;5077445;28;20019;-76
2023/01/23 07:25:34;;;;;;;64.13;25.73;;;;;;;2.03;100.00;102411.72;5095736;28;20503;-75
2023/01/23 07:28:00;;;;;;;72.88;25.25;;;;;;;2.05;100.00;102420.56;5095639;28;20457;-75
2023/01/23 07:30:25;;;;;;;59.80;23.25;;;;;;;2.07;100.00;102425.84;5095649;28;20020;-75
2023/01/23 07:32:51;;;;;;;77.20;28.40;;;;;;;2.08;100.00;102433.94;5094952;28;20130;-75
2023/01/23 07:35:17;;;;;;;69.80;23.98;;;;;;;2.12;100.00;102431.16;5095773;28;20039;-77
2023/01/23 07:37:42;;;;;;;70.78;25.95;;;;;;;2.14;100.00;102426.75;5060558;28;20035;-76
2023/01/23 07:40:08;;;;;;;69.85;25.08;;;;;;;2.18;100.00;102423.97;5095063;28;20047;-76
2023/01/23 07:42:34;;;;;;;74.88;29.10;;;;;;;2.12;100.00;102431.16;5095337;28;20185;-77
2023/01/23 07:44:59;;;;;;;116.03;41.55;;;;;;;2.00;100.00;102426.53;5095037;28;20528;-76
2023/01/23 07:47:25;;;;;;;81.47;31.92;;;;;;;1.94;100.00;102421.66;5094925;28;20028;-76
2023/01/23 07:49:50;;;;;;;89.25;35.00;;;;;;;1.85;100.00;102436.81;5095184;28;20107;-76
2023/01/23 07:52:16;;;;;;;77.97;31.40;;;;;;;1.82;100.00;102436.78;5077097;28;20031;-76
2023/01/23 07:54:41;;;;;;;84.13;36.00;;;;;;;1.85;100.00;102447.28;5095204;28;20032;-76
2023/01/23 07:57:06;;;;;;;67.97;28.80;;;;;;;1.77;100.00;102440.72;5095251;28;20032;-76
2023/01/23 07:59:32;;;;;;;68.82;27.85;;;;;;;1.77;100.00;102434.28;5076727;28;20138;-77
2023/01/23 08:01:57;;;;;;;64.15;25.50;;;;;;;1.86;100.00;102434.81;5094924;28;20031;-76
2023/01/23 08:04:24;;;;;;;59.75;24.20;;;;;;;1.97;100.00;102441.41;5076815;28;20504;-76
2023/01/23 08:06:49;;;;;;;59.30;23.08;;;;;;;2.02;100.00;102451.56;5076352;28;20059;-76
2023/01/23 08:09:14;;;;;;;58.42;25.70;;;;;;;2.03;100.00;102445.53;5094886;28;20062;-76
2023/01/23 08:11:40;;;;;;;60.15;24.13;;;;;;;2.08;100.00;102447.22;5094867;28;20100;-77
2023/01/23 08:14:05;;;;;;;53.42;23.38;;;;;;;2.05;100.00;102443.13;5094381;28;20053;-75
2023/01/23 08:16:31;;;;;;;61.13;22.95;;;;;;;2.09;100.00;102440.38;5094241;28;20035;-76
2023/01/23 08:18:56;;;;;;;58.38;22.55;;;;;;;2.09;100.00;102440.38;5094468;28;20028;-76
2023/01/23 08:21:22;;;;;;;54.70;23.55;;;;;;;2.08;100.00;102447.22;5094582;28;20028;-76
2023/01/23 08:23:47;;;;;;;55.20;22.58;;;;;;;2.07;100.00;102440.75;5076389;28;20463;-77
2023/01/23 08:26:15;;;;;;;53.55;25.15;;;;;;;2.13;100.00;102450.50;5076267;28;20331;-77
2023/01/23 08:28:41;;;;;;;46.72;20.15;;;;;;;2.07;100.00;102451.22;5093892;28;20024;-78
2023/01/23 08:31:10;;;;;;;51.55;22.25;;;;;;;2.08;100.00;102452.84;5093908;28;20039;-74
2023/01/23 08:33:37;;;;;;;52.72;22.95;;;;;;;2.16;100.00;102454.56;5092051;28;20047;-74
2023/01/23 08:36:04;;;;;;;55.97;22.90;;;;;;;2.17;100.00;102459.00;5076258;28;20047;-75
2023/01/23 08:38:31;;;;;;;51.47;22.13;;;;;;;2.22;100.00;102451.03;5059304;28;20127;-76
2023/01/23 08:41:02;;;;;;;55.60;23.60;;;;;;;2.29;100.00;102450.31;5093728;28;20032;-75
2023/01/23 08:43:29;;;;;;;57.08;22.67;;;;;;;2.39;100.00;102454.47;5076194;28;20060;-75
2023/01/23 08:45:57;;;;;;;50.05;23.45;;;;;;;2.46;100.00;102455.38;5075912;28;20051;-74
2023/01/23 08:48:24;;;;;;;56.33;24.95;;;;;;;2.38;100.00;102455.66;5075461;28;20047;-75
2023/01/23 08:50:51;;;;;;;61.75;24.48;;;;;;;2.34;100.00;102458.44;5076111;28;20086;-75
2023/01/23 08:53:18;;;;;;;61.50;25.30;;;;;;;2.26;100.00;102466.00;5042748;28;20130;-74
2023/01/23 08:55:44;;;;;;;48.58;20.90;;;;;;;2.21;100.00;102457.88;5093833;28;20033;-75
2023/01/23 08:58:15;;;;;;;57.00;26.60;;;;;;;2.20;100.00;102463.88;5093675;28;20032;-75
2023/01/23 09:00:42;;;;;;;61.20;24.77;;;;;;;2.20;100.00;102452.59;5075484;28;20020;-73
2023/01/23 09:03:08;;;;;;;56.38;23.83;;;;;;;2.21;100.00;102466.31;5058303;28;20472;-78
2023/01/23 09:05:34;;;;;;;46.47;21.55;;;;;;;2.23;100.00;102466.78;5062262;28;20469;-77
2023/01/23 09:08:01;;;;;;;60.75;24.67;;;;;;;2.22;100.00;102470.78;5043206;28;20036;-76
2023/01/23 09:10:29;;;;;;;57.85;22.48;;;;;;;2.23;100.00;102471.59;5093953;28;20085;-75
2023/01/23 09:13:03;;;;;;;59.13;24.98;;;;;;;2.33;100.00;102468.91;5093229;28;20024;-73
2023/01/23 09:15:29;;;;;;;58.45;22.08;;;;;;;2.36;100.00;102464.50;5093488;28;20024;-78
2023/01/23 09:17:55;;;;;;;70.20;25.42;;;;;;;2.34;100.00;102466.91;5093805;28;20032;-71
2023/01/23 09:20:21;;;;;;;60.08;23.98;;;;;;;2.42;100.00;102465.78;5075412;28;20111;-72
2023/01/23 09:22:47;;;;;;;60.88;24.77;;;;;;;2.42;100.00;102464.97;5092638;28;20140;-72
2023/01/23 09:25:13;;;;;;;73.63;25.00;;;;;;;2.49;100.00;102470.72;5093205;28;20024;-71
2023/01/23 09:27:39;;;;;;;65.20;24.20;;;;;;;2.58;100.00;102472.06;5088346;28;20096;-71
2023/01/23 09:30:06;;;;;;;67.40;27.55;;;;;;;2.71;100.00;102475.41;5092079;28;20040;-70
2023/01/23 09:32:34;;;;;;;75.70;26.67;;;;;;;2.78;100.00;102473.47;5092142;28;20035;-71
2023/01/23 09:35:00;;;;;;;65.15;22.88;;;;;;;2.85;100.00;102480.41;5075164;28;20059;-72
2023/01/23 09:37:29;;;;;;;59.63;24.67;;;;;;;2.74;100.00;102472.63;5075268;28;20106;-71
2023/01/23 09:39:55;;;;;;;71.32;27.90;;;;;;;2.60;100.00;102468.81;5078409;28;20472;-73
2023/01/23 09:42:28;;;;;;;71.20;27.45;;;;;;;2.52;100.00;102475.59;5092271;28;20068;-71
2023/01/23 09:45:02;;;;;;;66.20;26.73;;;;;;;2.55;100.00;102472.00;5058653;28;20424;-72
2023/01/23 09:47:35;;;;;;;69.20;26.17;;;;;;;2.65;100.00;102469.28;5076139;28;20058;-71
2023/01/23 09:50:06;;;;;;;63.55;27.13;;;;;;;2.56;100.00;102471.63;5058727;28;20043;-72
2023/01/23 09:52:41;;;;;;;66.32;26.40;;;;;;;2.56;100.00;102476.44;5058760;28;20438;-70
2023/01/23 09:55:19;;;;;;;65.53;25.67;;;;;;;2.54;100.00;102462.72;5075450;28;20393;-71
2023/01/23 09:57:55;;;;;;;65.63;24.80;;;;;;;2.60;100.00;102472.47;5076889;28;20086;-71
2023/01/23 10:00:30;;;;;;;63.03;26.73;;;;;;;2.64;100.00;102472.50;5076800;28;20052;-72
2023/01/23 10:02:57;;;;;;;62.80;23.80;;;;;;;2.70;100.00;102471.78;5075376;28;20111;-72
2023/01/23 10:05:40;;;;;;;65.90;27.08;;;;;;;2.83;100.00;102471.53;5075596;28;20115;-73
2023/01/23 10:08:34;;;;;;;68.03;25.23;;;;;;;2.89;100.00;102464.31;5076972;28;20068;-74
2023/01/23 10:11:12;;;;;;;61.03;24.40;;;;;;;2.92;100.00;102455.91;5076467;28;20116;-74
2023/01/23 10:13:55;;;;;;;60.15;25.73;;;;;;;2.93;100.00;102468.81;5076740;28;20107;-72
2023/01/23 10:17:08;;;;;;;57.25;24.10;;;;;;;2.92;100.00;102472.03;5076693;28;20063;-72
2023/01/23 10:19:40;;;;;;;62.90;24.65;;;;;;;3.02;100.00;102466.50;5040364;28;20037;-74
2023/01/23 10:22:35;;;;;;;61.00;23.77;;;;;;;3.04;100.00;102466.09;5076469;28;20446;-75
2023/01/23 10:25:19;;;;;;;61.83;23.95;;;;;;;3.00;100.00;102459.59;5076608;28;20021;-73
2023/01/23 10:27:49;;;;;;;61.70;25.10;;;;;;;3.05;100.00;102459.25;5058332;28;20024;-75
2023/01/23 10:30:34;;;;;;;52.17;23.45;;;;;;;3.08;100.00;102455.66;5075270;28;20020;-74
2023/01/23 10:33:12;;;;;;;54.47;23.25;;;;;;;2.98;100.00;102454.31;5058537;28;20045;-74
2023/01/23 10:36:05;;;;;;;56.92;24.10;;;;;;;3.08;100.00;102445.16;5076416;28;20480;-75
2023/01/23 10:38:48;;;;;;;61.42;25.98;;;;;;;3.10;100.00;102442.75;5075058;28;20016;-75
2023/01/23 10:41:20;;;;;;;62.67;24.05;;;;;;;3.12;100.00;102440.38;5058289;28;20021;-75
2023/01/23 10:43:50;;;;;;;62.88;24.83;;;;;;;3.15;100.00;102444.41;5058877;28;20353;-74
2023/01/23 10:46:40;;;;;;;57.42;24.83;;;;;;;3.14;100.00;102443.59;5058369;28;20557;-76
2023/01/23 10:49:07;;;;;;;66.20;26.40;;;;;;;3.06;100.00;102443.94;5076416;28;20382;-74
2023/01/23 10:51:38;;;;;;;67.30;26.42;;;;;;;2.97;100.00;102444.25;5075307;28;20052;-73
2023/01/23 10:54:20;;;;;;;66.53;24.75;;;;;;;3.06;100.00;102449.56;5076257;28;20028;-74
2023/01/23 10:57:07;;;;;;;54.70;23.95;;;;;;;3.16;100.00;102440.41;5075777;28;20469;-73
2023/01/23 10:59:40;;;;;;;62.42;26.08;;;;;;;3.08;100.00;102435.91;5075842;28;20133;-76
2023/01/23 11:02:15;;;;;;;66.03;27.08;;;;;;;3.11;100.00;102446.41;5058263;28;20026;-76
2023/01/23 11:04:48;;;;;;;59.83;23.73;;;;;;;3.09;100.00;102441.13;5075899;28;20063;-75
2023/01/23 11:07:28;;;;;;;74.82;26.48;;;;;;;3.08;100.00;102439.50;5076006;28;20412;-77
2023/01/23 11:10:19;;;;;;;61.90;25.33;;;;;;;3.03;100.00;102433.41;5075011;28;20432;-77
2023/01/23 11:13:09;;;;;;;57.88;24.65;;;;;;;2.87;100.00;102444.13;5075248;28;20021;-76
2023/01/23 11:15:39;;;;;;;58.42;23.33;;;;;;;2.86;100.00;102437.69;5075426;28;20040;-75
2023/01/23 11:18:41;;;;;;;59.38;23.25;;;;;;;2.86;100.00;102437.69;5077456;28;20043;-72
2023/01/23 11:21:32;;;;;;;52.35;22.83;;;;;;;2.89;100.00;102441.72;5095415;28;20420;-79
2023/01/23 11:24:16;;;;;;;66.40;24.45;;;;;;;2.85;100.00;102423.94;5060616;28;20058;-78